KSEA/SEA METAR and TAF weather

Enter ICAO airport designator
Station Type Date Time Source
KSEA METAR 2020/02/22 05:53 UTC NOAA

KSEA 220553Z 20006KT 10SM FEW150 SCT250 07/03 A3014 RMK AO2 SLP216 T00670033 10117 20067 51005


Station Type Date Time Source
KSEA Decoded METAR 2020/02/22 05:53 UTC NOAA

SEATTLE-TACOMA INTERNATIONAL AIRPORT , WA, United States (KSEA) 47-27N 122-19W 136M
Feb 22, 2020 - 12:53 AM EST / 2020.02.22 0553 UTC
Wind: from the SSW (200 degrees) at 7 MPH (6 KT):0
Visibility: 10 mile(s):0
Sky conditions: partly cloudy
Temperature: 44.1 F (6.7 C)
Dew Point: 37.9 F (3.3 C)
Relative Humidity: 78%
Pressure (altimeter): 30.14 in. Hg (1020 hPa)
Pressure tendency: 0.01 inches (0.5 hPa) higher than three hours ago
ob: KSEA 220553Z 20006KT 10SM FEW150 SCT250 07/03 A3014 RMK AO2 SLP216 T00670033 10117 20067 51005
cycle: 6

Station Type Date Time Source
KSEA TAF 2020/02/22 06:22 UTC NOAA

TAF KSEA 220520Z 2206/2312 21004KT P6SM SCT050 SCT150 BKN250
FM221000 18008KT P6SM FEW015 BKN050
FM221500 18008KT P6SM BKN015 BKN050
FM230100 VRB04KT P6SM SCT020 BKN050

Example: see airport list